createdAt,value
2023-03-07T00:00:36.409Z,0.00
2023-03-07T00:01:36.383Z,0.00
2023-03-07T00:02:36.432Z,0.00
2023-03-07T00:03:36.322Z,0.00
2023-03-07T00:04:36.276Z,0.00
2023-03-07T00:05:36.223Z,0.00
2023-03-07T00:06:36.186Z,0.00
2023-03-07T00:07:36.211Z,0.00
2023-03-07T00:08:36.105Z,0.00
2023-03-07T00:09:36.070Z,0.00
2023-03-07T00:10:36.025Z,0.00
2023-03-07T00:11:35.982Z,0.00
2023-03-07T00:12:35.946Z,0.00
2023-03-07T00:13:35.967Z,0.00
2023-03-07T00:14:35.882Z,0.00
2023-03-07T00:15:35.824Z,0.00
2023-03-07T00:16:35.780Z,0.00
2023-03-07T00:17:35.741Z,0.00
2023-03-07T00:18:35.769Z,0.00
2023-03-07T00:19:35.673Z,0.00
2023-03-07T00:20:35.629Z,0.00
2023-03-07T00:21:35.591Z,0.00
2023-03-07T00:22:35.558Z,0.00
2023-03-07T00:23:35.504Z,0.00
2023-03-07T00:24:35.532Z,0.00
2023-03-07T00:25:35.434Z,0.00
2023-03-07T00:26:35.386Z,0.00
2023-03-07T00:27:35.350Z,0.00
2023-03-07T00:28:35.316Z,0.00
2023-03-07T00:29:35.278Z,0.00
2023-03-07T00:30:35.307Z,0.00
2023-03-07T00:31:35.240Z,0.00
2023-03-07T00:32:35.194Z,0.00
2023-03-07T00:33:35.115Z,0.00
2023-03-07T00:34:35.095Z,0.00
2023-03-07T00:35:35.046Z,0.00
2023-03-07T00:36:35.076Z,0.00
2023-03-07T00:37:34.959Z,0.00
2023-03-07T00:38:34.915Z,0.00
2023-03-07T00:39:35.961Z,0.00
2023-03-07T00:40:34.837Z,0.00
2023-03-07T00:41:34.828Z,0.00
2023-03-07T00:42:34.830Z,0.00
2023-03-07T00:43:34.723Z,0.00
2023-03-07T00:44:34.746Z,0.00
2023-03-07T00:45:34.672Z,0.00
2023-03-07T00:46:34.608Z,0.00
2023-03-07T00:47:34.563Z,0.00
2023-03-07T00:48:34.692Z,0.00
2023-03-07T00:49:34.485Z,0.00
2023-03-07T00:50:34.450Z,0.00
2023-03-07T00:51:34.399Z,0.00
2023-03-07T00:52:34.370Z,0.00
2023-03-07T00:53:34.325Z,0.00
2023-03-07T00:54:34.358Z,0.00
2023-03-07T00:55:34.245Z,0.00
2023-03-07T00:56:34.210Z,0.00
2023-03-07T00:57:34.167Z,0.00
2023-03-07T00:58:34.127Z,0.00
2023-03-07T00:59:34.093Z,0.00
2023-03-07T01:00:34.111Z,0.00
2023-03-07T01:01:34.010Z,0.00
2023-03-07T01:02:33.994Z,0.00
2023-03-07T01:03:33.939Z,0.00
2023-03-07T01:04:34.043Z,0.00
2023-03-07T01:05:33.856Z,0.00
2023-03-07T01:06:33.819Z,0.00
2023-03-07T01:07:33.772Z,0.00
2023-03-07T01:08:33.737Z,0.00
2023-03-07T01:09:33.757Z,0.00
2023-03-07T01:10:33.656Z,0.00
2023-03-07T01:11:33.614Z,0.00
2023-03-07T01:12:33.589Z,0.00
2023-03-07T01:13:33.545Z,0.00
2023-03-07T01:14:33.530Z,0.00
2023-03-07T01:15:33.513Z,0.00
2023-03-07T01:16:33.470Z,0.00
2023-03-07T01:17:33.399Z,0.00
2023-03-07T01:18:33.343Z,0.00
2023-03-07T01:19:33.318Z,0.00
2023-03-07T01:20:33.338Z,0.00
2023-03-07T01:21:33.277Z,0.00
2023-03-07T01:22:33.204Z,0.00
2023-03-07T01:23:33.163Z,0.00
2023-03-07T01:24:33.106Z,0.00
2023-03-07T01:25:33.074Z,0.00
2023-03-07T01:26:33.105Z,0.00
2023-03-07T01:27:32.987Z,0.00
2023-03-07T01:28:32.941Z,0.00
2023-03-07T01:29:32.934Z,0.00
2023-03-07T01:30:32.877Z,0.00
2023-03-07T01:31:32.891Z,0.00
2023-03-07T01:32:33.599Z,0.00
2023-03-07T01:33:32.769Z,0.00
2023-03-07T01:34:32.727Z,0.00
2023-03-07T01:35:32.769Z,0.00
2023-03-07T01:36:32.675Z,0.00
2023-03-07T01:37:32.653Z,0.00
2023-03-07T01:38:32.557Z,0.00
2023-03-07T01:39:32.512Z,0.00
2023-03-07T01:40:32.478Z,0.00
2023-03-07T01:41:32.495Z,0.00
2023-03-07T01:42:32.418Z,0.00
2023-03-07T01:43:32.420Z,0.00
2023-03-07T01:44:32.318Z,0.00
2023-03-07T01:45:32.357Z,0.00
2023-03-07T01:46:32.249Z,0.00
2023-03-07T01:47:32.281Z,0.00
2023-03-07T01:48:32.168Z,0.00
2023-03-07T01:49:32.242Z,0.00
2023-03-07T01:50:32.081Z,0.00
2023-03-07T01:51:32.041Z,0.00
2023-03-07T01:52:32.034Z,0.00
2023-03-07T01:53:32.031Z,0.00
2023-03-07T01:54:31.933Z,0.00
2023-03-07T01:55:31.961Z,0.00
2023-03-07T01:56:31.844Z,0.00
2023-03-07T01:57:31.815Z,0.00
2023-03-07T01:58:31.775Z,0.00
2023-03-07T01:59:31.734Z,0.00
2023-03-07T02:00:31.693Z,0.00
2023-03-07T02:01:31.788Z,0.00
2023-03-07T02:02:31.614Z,0.00
2023-03-07T02:03:31.575Z,0.00
2023-03-07T02:04:31.556Z,0.00
2023-03-07T02:05:31.496Z,0.00
2023-03-07T02:06:31.453Z,0.00
2023-03-07T02:07:31.488Z,0.00
2023-03-07T02:08:31.401Z,0.00
2023-03-07T02:09:31.417Z,0.00
2023-03-07T02:10:31.304Z,0.00
2023-03-07T02:11:31.260Z,0.00
2023-03-07T02:12:31.229Z,0.00
2023-03-07T02:13:31.246Z,0.00
2023-03-07T02:14:31.176Z,0.00
2023-03-07T02:15:31.101Z,0.00
2023-03-07T02:16:31.064Z,0.00
2023-03-07T02:17:31.044Z,0.00
2023-03-07T02:18:30.988Z,0.00
2023-03-07T02:19:31.008Z,0.00
2023-03-07T02:20:30.930Z,0.00
2023-03-07T02:21:30.901Z,0.00
2023-03-07T02:22:30.838Z,0.00
2023-03-07T02:23:31.582Z,0.00
2023-03-07T02:24:30.753Z,0.00
2023-03-07T02:25:30.843Z,0.00
2023-03-07T02:26:30.698Z,0.00
2023-03-07T02:27:30.642Z,0.00
2023-03-07T02:28:31.588Z,0.00
2023-03-07T02:29:30.563Z,0.00
2023-03-07T02:30:30.618Z,0.00
2023-03-07T02:31:30.549Z,0.00
2023-03-07T02:32:30.584Z,0.00
2023-03-07T02:33:30.407Z,0.00
2023-03-07T02:34:30.367Z,0.00
2023-03-07T02:35:30.363Z,0.00
2023-03-07T02:36:30.389Z,0.00
2023-03-07T02:37:30.306Z,0.00
2023-03-07T02:38:30.230Z,0.00
2023-03-07T02:39:30.197Z,0.00
2023-03-07T02:40:30.709Z,0.00
2023-03-07T02:41:30.106Z,0.00
2023-03-07T02:42:30.065Z,0.00
2023-03-07T02:43:30.095Z,0.00
2023-03-07T02:44:29.981Z,0.00
2023-03-07T02:45:29.947Z,0.00
2023-03-07T02:46:29.957Z,0.00
2023-03-07T02:47:29.866Z,0.00
2023-03-07T02:48:29.866Z,0.00
2023-03-07T02:49:29.851Z,0.00
2023-03-07T02:50:29.752Z,0.00
2023-03-07T02:51:29.710Z,0.00
2023-03-07T02:52:29.670Z,0.00
2023-03-07T02:53:29.651Z,0.00
2023-03-07T02:54:29.682Z,0.00
2023-03-07T02:55:29.624Z,0.00
2023-03-07T02:56:29.531Z,0.00
2023-03-07T02:57:29.481Z,0.00
2023-03-07T02:58:29.454Z,0.00
2023-03-07T02:59:29.422Z,0.00
2023-03-07T03:00:29.368Z,0.00
2023-03-07T03:01:29.428Z,0.00
2023-03-07T03:02:29.353Z,0.00
2023-03-07T03:03:29.249Z,0.00
2023-03-07T03:04:29.284Z,0.00
2023-03-07T03:05:29.175Z,0.00
2023-03-07T03:06:29.144Z,0.00
2023-03-07T03:07:29.157Z,0.00
2023-03-07T03:08:29.055Z,0.00
2023-03-07T03:09:29.025Z,0.00
2023-03-07T03:10:28.993Z,0.00
2023-03-07T03:11:28.952Z,0.00
2023-03-07T03:12:29.020Z,0.00
2023-03-07T03:13:28.870Z,0.00
2023-03-07T03:14:28.872Z,0.00
2023-03-07T03:15:28.807Z,0.00
2023-03-07T03:16:28.808Z,0.00
2023-03-07T03:17:28.723Z,0.00
2023-03-07T03:18:28.752Z,0.00
2023-03-07T03:19:28.638Z,0.00
2023-03-07T03:20:28.596Z,0.00
2023-03-07T03:21:28.565Z,0.00
2023-03-07T03:22:28.532Z,0.00
2023-03-07T03:23:28.481Z,0.00
2023-03-07T03:24:28.517Z,0.00
2023-03-07T03:25:28.414Z,0.00
2023-03-07T03:26:28.388Z,0.00
2023-03-07T03:27:28.339Z,0.00
2023-03-07T03:28:28.287Z,0.00
2023-03-07T03:29:28.251Z,0.00
2023-03-07T03:30:28.265Z,0.00
2023-03-07T03:31:28.216Z,0.00
2023-03-07T03:32:28.189Z,0.00
2023-03-07T03:33:28.100Z,0.00
2023-03-07T03:34:28.054Z,0.00
2023-03-07T03:35:28.020Z,0.00
2023-03-07T03:36:28.263Z,0.00
2023-03-07T03:37:27.943Z,0.00
2023-03-07T03:38:27.910Z,0.00
2023-03-07T03:39:27.885Z,0.00
2023-03-07T03:40:27.827Z,0.00
2023-03-07T03:41:27.791Z,0.00
2023-03-07T03:42:27.812Z,0.00
2023-03-07T03:43:27.710Z,0.00
2023-03-07T03:44:27.702Z,0.00
2023-03-07T03:45:27.633Z,0.00
2023-03-07T03:46:27.645Z,0.00
2023-03-07T03:47:27.554Z,0.00
2023-03-07T03:48:27.587Z,0.00
2023-03-07T03:49:27.479Z,0.00
2023-03-07T03:50:27.491Z,0.00
2023-03-07T03:51:27.404Z,0.00
2023-03-07T03:52:27.363Z,0.00
2023-03-07T03:53:27.313Z,0.00
2023-03-07T03:54:27.289Z,0.00
2023-03-07T03:55:27.321Z,0.00
2023-03-07T03:56:27.204Z,0.00
2023-03-07T03:57:27.172Z,0.00
2023-03-07T03:58:27.137Z,0.00
2023-03-07T03:59:27.098Z,0.00
2023-03-07T04:00:27.048Z,0.00
2023-03-07T04:01:27.309Z,0.00
2023-03-07T04:02:27.099Z,0.00
2023-03-07T04:03:26.937Z,0.00
2023-03-07T04:04:26.906Z,0.00
2023-03-07T04:05:26.863Z,0.00
2023-03-07T04:06:26.818Z,0.00
2023-03-07T04:07:26.855Z,0.00
2023-03-07T04:08:26.744Z,0.00
2023-03-07T04:09:36.267Z,0.00
2023-03-07T04:10:26.662Z,0.00
2023-03-07T04:11:26.647Z,0.00
2023-03-07T04:12:26.581Z,0.00
2023-03-07T04:13:27.241Z,0.00
2023-03-07T04:14:26.537Z,0.00
2023-03-07T04:15:26.471Z,0.00
2023-03-07T04:16:26.478Z,0.00
2023-03-07T04:17:26.390Z,0.00
2023-03-07T04:18:27.205Z,0.00
2023-03-07T04:19:27.004Z,0.00
2023-03-07T04:20:26.277Z,0.00
2023-03-07T04:21:26.245Z,0.00
2023-03-07T04:22:26.202Z,0.00
2023-03-07T04:23:26.161Z,0.00
2023-03-07T04:24:26.124Z,0.00
2023-03-07T04:25:26.140Z,0.00
2023-03-07T04:26:26.053Z,0.00
2023-03-07T04:27:26.034Z,0.00
2023-03-07T04:28:25.963Z,0.00
2023-03-07T04:29:25.926Z,0.00
2023-03-07T04:30:25.894Z,0.00
2023-03-07T04:31:25.979Z,0.00
2023-03-07T04:32:25.841Z,0.00
2023-03-07T04:33:25.769Z,0.00
2023-03-07T04:34:25.733Z,0.00
2023-03-07T04:35:25.698Z,0.00
2023-03-07T04:36:26.632Z,0.00
2023-03-07T04:37:25.695Z,0.00
2023-03-07T04:38:25.597Z,0.00
2023-03-07T04:39:25.544Z,0.00
2023-03-07T04:40:25.511Z,0.00
2023-03-07T04:41:25.466Z,0.00
2023-03-07T04:42:25.479Z,0.00
2023-03-07T04:43:25.393Z,0.00
2023-03-07T04:44:25.352Z,0.00
2023-03-07T04:45:25.312Z,0.00
2023-03-07T04:46:25.282Z,0.00
2023-03-07T04:47:25.237Z,0.00
2023-03-07T04:48:25.249Z,0.00
2023-03-07T04:49:25.184Z,0.00
2023-03-07T04:50:25.120Z,0.00
2023-03-07T04:51:25.091Z,0.00
2023-03-07T04:52:25.042Z,0.00
2023-03-07T04:53:25.004Z,0.00
2023-03-07T04:54:25.011Z,0.00
2023-03-07T04:55:24.924Z,0.00
2023-03-07T04:56:24.882Z,0.00
2023-03-07T04:57:24.845Z,0.00
2023-03-07T04:58:24.806Z,0.00
2023-03-07T04:59:24.768Z,0.00
2023-03-07T05:00:24.788Z,0.00
2023-03-07T05:01:24.761Z,0.00
2023-03-07T05:02:24.676Z,0.00
2023-03-07T05:03:24.621Z,0.00
2023-03-07T05:04:24.637Z,0.00
2023-03-07T05:05:24.592Z,0.00
2023-03-07T05:06:24.498Z,0.00
2023-03-07T05:07:24.465Z,0.00
2023-03-07T05:08:24.420Z,0.00
2023-03-07T05:09:24.431Z,0.00
2023-03-07T05:10:24.348Z,0.00
2023-03-07T05:11:24.367Z,0.00
2023-03-07T05:12:24.270Z,0.00
2023-03-07T05:13:24.237Z,0.00
2023-03-07T05:14:24.212Z,0.00
2023-03-07T05:15:24.158Z,0.00
2023-03-07T05:16:24.174Z,0.00
2023-03-07T05:17:24.074Z,0.00
2023-03-07T05:18:24.037Z,0.00
2023-03-07T05:19:24.010Z,4.00
2023-03-07T05:20:23.952Z,4.00
2023-03-07T05:21:23.923Z,4.00
2023-03-07T05:22:23.965Z,4.00
2023-03-07T05:23:23.842Z,4.00
2023-03-07T05:24:23.799Z,4.00
2023-03-07T05:25:23.770Z,8.00
2023-03-07T05:26:23.732Z,4.00
2023-03-07T05:27:24.311Z,8.00
2023-03-07T05:28:23.700Z,8.00
2023-03-07T05:29:23.702Z,8.00
2023-03-07T05:30:23.573Z,12.00
2023-03-07T05:31:23.637Z,16.00
2023-03-07T05:32:23.556Z,16.00
2023-03-07T05:33:23.457Z,20.00
2023-03-07T05:34:23.423Z,20.00
2023-03-07T05:35:23.431Z,20.00
2023-03-07T05:36:23.332Z,16.00
2023-03-07T05:37:23.304Z,20.00
2023-03-07T05:38:23.273Z,24.00
2023-03-07T05:39:23.240Z,32.00
2023-03-07T05:40:24.193Z,40.00
2023-03-07T05:41:23.153Z,56.00
2023-03-07T05:42:23.104Z,60.00
2023-03-07T05:43:23.070Z,48.00
2023-03-07T05:44:23.746Z,52.00
2023-03-07T05:45:23.012Z,60.00
2023-03-07T05:46:23.118Z,60.00
2023-03-07T05:47:22.928Z,76.00
2023-03-07T05:48:22.871Z,100.00
2023-03-07T05:49:22.845Z,96.00
2023-03-07T05:50:22.813Z,92.00
2023-03-07T05:51:22.762Z,96.00
2023-03-07T05:52:22.799Z,96.00
2023-03-07T05:53:22.683Z,108.00
2023-03-07T05:54:22.655Z,144.00
2023-03-07T05:55:22.632Z,144.00
2023-03-07T05:56:22.565Z,168.00
2023-03-07T05:57:22.528Z,192.00
2023-03-07T05:58:22.555Z,200.00
2023-03-07T05:59:22.454Z,220.00
2023-03-07T06:00:22.416Z,228.00
2023-03-07T06:01:22.376Z,288.00
2023-03-07T06:02:22.377Z,312.00
2023-03-07T06:03:22.405Z,348.00
2023-03-07T06:04:22.307Z,380.00
2023-03-07T06:05:23.762Z,372.00
2023-03-07T06:06:22.182Z,400.00
2023-03-07T06:07:22.138Z,428.00
2023-03-07T06:08:22.098Z,456.00
2023-03-07T06:09:22.065Z,436.00
2023-03-07T06:10:22.086Z,428.00
2023-03-07T06:11:21.996Z,468.00
2023-03-07T06:12:21.948Z,500.00
2023-03-07T06:13:21.921Z,512.00
2023-03-07T06:14:21.959Z,516.00
2023-03-07T06:15:23.684Z,504.00
2023-03-07T06:16:21.872Z,532.00
2023-03-07T06:17:21.771Z,548.00
2023-03-07T06:18:21.722Z,576.00
2023-03-07T06:19:21.689Z,584.00
2023-03-07T06:20:21.650Z,560.00
2023-03-07T06:21:21.611Z,588.00
2023-03-07T06:22:21.617Z,628.00
2023-03-07T06:23:21.526Z,568.00
2023-03-07T06:24:21.493Z,496.00
2023-03-07T06:25:21.449Z,480.00
2023-03-07T06:26:21.425Z,536.00
2023-03-07T06:27:21.388Z,588.00
2023-03-07T06:28:21.381Z,640.00
2023-03-07T06:29:21.294Z,704.00
2023-03-07T06:30:24.145Z,748.00
2023-03-07T06:31:21.232Z,824.00
2023-03-07T06:32:21.215Z,808.00
2023-03-07T06:33:21.143Z,756.00
2023-03-07T06:34:21.172Z,836.00
2023-03-07T06:35:21.061Z,1024.00
2023-03-07T06:36:21.032Z,1108.00
2023-03-07T06:37:21.007Z,1148.00
2023-03-07T06:38:21.805Z,1172.00
2023-03-07T06:39:20.993Z,1040.00
2023-03-07T06:40:20.986Z,940.00
2023-03-07T06:41:20.833Z,920.00
2023-03-07T06:42:20.812Z,840.00
2023-03-07T06:43:20.773Z,944.00
2023-03-07T06:44:20.724Z,1020.00
2023-03-07T06:45:20.709Z,852.00
2023-03-07T06:46:20.712Z,972.00
2023-03-07T06:47:20.612Z,1056.00
2023-03-07T06:48:20.566Z,972.00
2023-03-07T06:49:20.535Z,980.00
2023-03-07T06:50:26.639Z,1096.00
2023-03-07T06:51:20.514Z,1284.00
2023-03-07T06:52:20.432Z,1212.00
2023-03-07T06:53:20.382Z,1332.00
2023-03-07T06:54:20.355Z,1732.00
2023-03-07T06:55:20.335Z,1632.00
2023-03-07T06:56:20.272Z,1708.00
2023-03-07T06:57:20.280Z,1912.00
2023-03-07T06:58:20.199Z,2592.00
2023-03-07T06:59:20.151Z,2892.00
2023-03-07T07:00:20.115Z,2680.00
2023-03-07T07:01:20.080Z,2564.00
2023-03-07T07:02:20.137Z,2300.00
2023-03-07T07:03:20.144Z,2432.00
2023-03-07T07:04:19.964Z,2624.00
2023-03-07T07:05:19.931Z,2844.00
2023-03-07T07:06:19.884Z,3092.00
2023-03-07T07:07:19.853Z,2820.00
2023-03-07T07:08:19.806Z,2944.00
2023-03-07T07:09:19.847Z,2636.00
2023-03-07T07:10:19.726Z,1996.00
2023-03-07T07:11:19.694Z,1684.00
2023-03-07T07:12:19.655Z,1732.00
2023-03-07T07:13:19.620Z,1752.00
2023-03-07T07:14:19.579Z,2232.00
2023-03-07T07:15:19.614Z,2720.00
2023-03-07T07:16:19.523Z,2660.00
2023-03-07T07:17:19.466Z,2752.00
2023-03-07T07:18:19.423Z,3312.00
2023-03-07T07:19:19.382Z,4104.00
2023-03-07T07:20:19.359Z,4588.00
2023-03-07T07:21:19.373Z,4880.00
2023-03-07T07:22:19.275Z,4568.00
2023-03-07T07:23:19.245Z,4144.00
2023-03-07T07:24:19.207Z,3652.00
2023-03-07T07:25:19.159Z,3312.00
2023-03-07T07:26:20.646Z,2992.00
2023-03-07T07:27:19.237Z,2332.00
2023-03-07T07:28:19.052Z,2044.00
2023-03-07T07:29:19.014Z,2060.00
2023-03-07T07:30:18.981Z,1976.00
2023-03-07T07:31:18.985Z,1448.00
2023-03-07T07:32:19.132Z,1228.00
2023-03-07T07:33:19.097Z,1096.00
2023-03-07T07:34:18.832Z,1056.00
2023-03-07T07:35:18.790Z,1108.00
2023-03-07T07:36:18.744Z,1176.00
2023-03-07T07:37:18.734Z,1292.00
2023-03-07T07:38:18.676Z,1344.00
2023-03-07T07:39:18.740Z,1392.00
2023-03-07T07:40:18.604Z,1636.00
2023-03-07T07:41:18.562Z,1600.00
2023-03-07T07:42:18.531Z,1492.00
2023-03-07T07:43:18.514Z,1660.00
2023-03-07T07:44:18.465Z,1664.00
2023-03-07T07:45:18.467Z,2276.00
2023-03-07T07:46:18.458Z,2676.00
2023-03-07T07:47:18.343Z,2664.00
2023-03-07T07:48:18.299Z,3412.00
2023-03-07T07:49:18.771Z,4520.00
2023-03-07T07:50:18.226Z,4008.00
2023-03-07T07:51:18.246Z,3516.00
2023-03-07T07:52:18.178Z,3348.00
2023-03-07T07:53:18.771Z,3304.00
2023-03-07T07:54:18.086Z,3644.00
2023-03-07T07:55:18.034Z,3240.00
2023-03-07T07:56:18.002Z,2676.00
2023-03-07T07:57:18.022Z,3080.00
2023-03-07T07:58:17.933Z,3468.00
2023-03-07T07:59:20.664Z,4164.00
2023-03-07T08:00:17.856Z,5288.00
2023-03-07T08:01:17.876Z,5384.00
2023-03-07T08:02:17.892Z,3688.00
2023-03-07T08:03:17.820Z,3900.00
2023-03-07T08:04:17.728Z,4556.00
2023-03-07T08:05:17.675Z,5464.00
2023-03-07T08:06:19.848Z,4388.00
2023-03-07T08:07:17.593Z,3464.00
2023-03-07T08:08:17.555Z,3092.00
2023-03-07T08:09:17.574Z,2936.00
2023-03-07T08:10:17.495Z,2644.00
2023-03-07T08:11:17.448Z,2552.00
2023-03-07T08:12:17.408Z,2732.00
2023-03-07T08:13:17.392Z,2728.00
2023-03-07T08:14:17.403Z,3160.00
2023-03-07T08:15:17.359Z,3712.00
2023-03-07T08:16:17.361Z,4776.00
2023-03-07T08:17:17.216Z,5972.00
2023-03-07T08:18:17.180Z,6744.00
2023-03-07T08:19:17.149Z,6804.00
2023-03-07T08:20:17.114Z,7372.00
2023-03-07T08:21:17.134Z,7468.00
2023-03-07T08:22:17.042Z,7000.00
2023-03-07T08:23:16.999Z,6888.00
2023-03-07T08:24:17.790Z,7000.00
2023-03-07T08:25:16.928Z,6792.00
2023-03-07T08:26:16.909Z,5716.00
2023-03-07T08:27:16.926Z,5824.00
2023-03-07T08:28:16.816Z,5848.00
2023-03-07T08:29:16.834Z,6380.00
2023-03-07T08:30:16.752Z,8040.00
2023-03-07T08:31:16.744Z,8884.00
2023-03-07T08:32:16.695Z,8512.00
2023-03-07T08:33:17.289Z,7952.00
2023-03-07T08:34:16.613Z,7720.00
2023-03-07T08:35:16.564Z,8260.00
2023-03-07T08:36:16.542Z,7512.00
2023-03-07T08:37:16.488Z,6612.00
2023-03-07T08:38:16.454Z,6276.00
2023-03-07T08:39:16.474Z,5892.00
2023-03-07T08:40:16.386Z,6080.00
2023-03-07T08:41:16.352Z,6100.00
2023-03-07T08:42:16.393Z,5500.00
2023-03-07T08:43:17.201Z,5488.00
2023-03-07T08:44:16.248Z,5400.00
2023-03-07T08:45:16.267Z,5320.00
2023-03-07T08:46:16.235Z,5480.00
2023-03-07T08:47:16.125Z,5836.00
2023-03-07T08:48:16.092Z,4744.00
2023-03-07T08:49:16.081Z,5332.00
2023-03-07T08:50:16.025Z,5904.00
2023-03-07T08:51:16.072Z,5528.00
2023-03-07T08:52:15.937Z,5592.00
2023-03-07T08:53:15.927Z,5116.00
2023-03-07T08:54:15.865Z,5160.00
2023-03-07T08:55:15.839Z,6480.00
2023-03-07T08:56:15.830Z,6104.00
2023-03-07T08:57:15.855Z,6464.00
2023-03-07T08:58:15.752Z,7700.00
2023-03-07T08:59:15.681Z,7496.00
2023-03-07T09:00:15.680Z,7280.00
2023-03-07T09:01:15.627Z,7924.00
2023-03-07T09:02:15.590Z,7836.00
2023-03-07T09:03:15.589Z,8328.00
2023-03-07T09:04:15.539Z,7232.00
2023-03-07T09:05:15.472Z,7392.00
2023-03-07T09:06:15.485Z,7412.00
2023-03-07T09:07:15.409Z,6364.00
2023-03-07T09:08:15.430Z,6040.00
2023-03-07T09:09:15.429Z,5140.00
2023-03-07T09:10:15.275Z,7120.00
2023-03-07T09:11:15.241Z,7868.00
2023-03-07T09:12:15.207Z,6840.00
2023-03-07T09:13:16.465Z,6780.00
2023-03-07T09:14:15.139Z,6588.00
2023-03-07T09:15:15.178Z,9760.00
2023-03-07T09:16:15.157Z,10464.00
2023-03-07T09:17:15.024Z,10340.00
2023-03-07T09:18:15.039Z,10128.00
2023-03-07T09:19:14.962Z,10444.00
2023-03-07T09:20:14.918Z,9852.00
2023-03-07T09:21:14.933Z,9528.00
2023-03-07T09:22:14.851Z,9408.00
2023-03-07T09:23:14.814Z,9352.00
2023-03-07T09:24:14.794Z,9264.00
2023-03-07T09:25:14.800Z,8848.00
2023-03-07T09:26:14.720Z,9224.00
2023-03-07T09:27:14.732Z,9492.00
2023-03-07T09:28:14.635Z,9664.00
2023-03-07T09:29:14.619Z,9704.00
2023-03-07T09:30:14.607Z,9456.00
2023-03-07T09:31:14.652Z,9168.00
2023-03-07T09:32:14.541Z,9120.00
2023-03-07T09:33:14.573Z,9356.00
2023-03-07T09:34:14.424Z,9084.00
2023-03-07T09:35:14.391Z,9008.00
2023-03-07T09:36:14.373Z,9140.00
2023-03-07T09:37:14.321Z,8832.00
2023-03-07T09:38:14.303Z,8536.00
2023-03-07T09:39:14.374Z,8816.00
2023-03-07T09:40:14.260Z,9756.00
2023-03-07T09:41:14.266Z,9860.00
2023-03-07T09:42:14.146Z,9196.00
2023-03-07T09:43:14.102Z,8732.00
2023-03-07T09:44:14.069Z,8748.00
2023-03-07T09:45:14.040Z,8372.00
2023-03-07T09:46:14.039Z,7840.00
2023-03-07T09:47:14.008Z,7228.00
2023-03-07T09:48:13.943Z,6732.00
2023-03-07T09:49:13.892Z,6460.00
2023-03-07T09:50:13.865Z,6408.00
2023-03-07T09:51:13.819Z,6548.00
2023-03-07T09:52:13.850Z,6756.00
2023-03-07T09:53:13.752Z,6488.00
2023-03-07T09:54:13.720Z,7356.00
2023-03-07T09:55:13.694Z,7620.00
2023-03-07T09:56:13.675Z,7152.00
2023-03-07T09:57:15.324Z,7448.00
2023-03-07T09:58:13.640Z,7076.00
2023-03-07T09:59:22.339Z,6628.00
2023-03-07T10:00:13.517Z,6864.00
2023-03-07T10:01:13.473Z,7156.00
2023-03-07T10:02:13.489Z,7740.00
2023-03-07T10:03:13.466Z,7560.00
2023-03-07T10:04:13.380Z,7032.00
2023-03-07T10:05:13.347Z,7140.00
2023-03-07T10:06:13.292Z,7760.00
2023-03-07T10:07:13.267Z,8416.00
2023-03-07T10:08:13.284Z,8552.00
2023-03-07T10:09:13.197Z,9100.00
2023-03-07T10:10:22.329Z,9264.00
2023-03-07T10:11:13.160Z,9524.00
2023-03-07T10:12:13.084Z,9544.00
2023-03-07T10:13:13.103Z,9628.00
2023-03-07T10:14:13.146Z,9476.00
2023-03-07T10:15:12.985Z,9352.00
2023-03-07T10:16:12.981Z,9384.00
2023-03-07T10:17:12.949Z,9224.00
2023-03-07T10:18:12.951Z,8864.00
2023-03-07T10:19:12.840Z,8536.00
2023-03-07T10:20:12.920Z,8076.00
2023-03-07T10:21:12.779Z,7824.00
2023-03-07T10:22:12.733Z,7524.00
2023-03-07T10:23:12.690Z,7696.00
2023-03-07T10:24:12.658Z,7480.00
2023-03-07T10:25:12.636Z,7072.00
2023-03-07T10:26:13.333Z,6744.00
2023-03-07T10:27:12.571Z,7072.00
2023-03-07T10:28:12.523Z,7088.00
2023-03-07T10:29:12.476Z,6792.00
2023-03-07T10:30:12.441Z,6920.00
2023-03-07T10:31:12.409Z,6656.00
2023-03-07T10:32:12.526Z,6576.00
2023-03-07T10:33:12.354Z,6024.00
2023-03-07T10:34:17.601Z,5700.00
2023-03-07T10:35:12.277Z,6204.00
2023-03-07T10:36:12.233Z,6948.00
2023-03-07T10:37:12.181Z,6552.00
2023-03-07T10:38:12.238Z,6368.00
2023-03-07T10:39:12.131Z,6928.00
2023-03-07T10:40:12.084Z,5872.00
2023-03-07T10:41:12.049Z,4448.00
2023-03-07T10:42:12.010Z,4264.00
2023-03-07T10:43:11.978Z,3496.00
2023-03-07T10:44:11.987Z,4092.00
2023-03-07T10:45:12.646Z,6820.00
2023-03-07T10:46:23.810Z,7736.00
2023-03-07T10:47:11.828Z,8204.00
2023-03-07T10:48:11.825Z,7012.00
2023-03-07T10:49:11.761Z,4184.00
2023-03-07T10:50:11.784Z,3460.00
2023-03-07T10:51:11.690Z,3248.00
2023-03-07T10:52:11.655Z,2576.00
2023-03-07T10:53:11.619Z,4348.00
2023-03-07T10:54:11.589Z,5104.00
2023-03-07T10:55:11.540Z,6332.00
2023-03-07T10:56:11.559Z,7700.00
2023-03-07T10:57:11.475Z,7112.00
2023-03-07T10:58:11.436Z,8300.00
2023-03-07T10:59:11.414Z,8412.00
2023-03-07T11:00:11.373Z,8028.00
2023-03-07T11:01:11.365Z,7764.00
2023-03-07T11:02:11.349Z,7484.00
2023-03-07T11:03:11.252Z,7300.00
2023-03-07T11:04:11.224Z,7020.00
2023-03-07T11:05:11.221Z,7056.00
2023-03-07T11:06:11.146Z,7312.00
2023-03-07T11:07:11.107Z,7184.00
2023-03-07T11:08:11.115Z,7672.00
2023-03-07T11:09:11.045Z,8184.00
2023-03-07T11:10:11.007Z,8372.00
2023-03-07T11:11:10.960Z,7756.00
2023-03-07T11:12:11.006Z,7524.00
2023-03-07T11:13:10.959Z,7548.00
2023-03-07T11:14:13.364Z,7548.00
2023-03-07T11:15:10.985Z,7852.00
2023-03-07T11:16:11.652Z,8276.00
2023-03-07T11:17:10.749Z,8608.00
2023-03-07T11:18:10.731Z,8684.00
2023-03-07T11:19:10.681Z,8948.00
2023-03-07T11:20:10.695Z,9136.00
2023-03-07T11:21:10.604Z,8660.00
2023-03-07T11:22:10.567Z,8344.00
2023-03-07T11:23:11.332Z,8004.00
2023-03-07T11:24:10.663Z,7652.00
2023-03-07T11:25:10.548Z,6712.00
2023-03-07T11:26:10.577Z,6772.00
2023-03-07T11:27:10.395Z,6216.00
2023-03-07T11:28:10.361Z,6084.00
2023-03-07T11:29:10.335Z,6612.00
2023-03-07T11:30:10.276Z,5996.00
2023-03-07T11:31:10.375Z,6220.00
2023-03-07T11:32:10.238Z,6592.00
2023-03-07T11:33:10.225Z,6624.00
2023-03-07T11:34:10.143Z,6216.00
2023-03-07T11:35:10.118Z,6792.00
2023-03-07T11:36:10.101Z,6604.00
2023-03-07T11:37:10.102Z,6760.00
2023-03-07T11:38:10.011Z,6812.00
2023-03-07T11:39:09.964Z,6264.00
2023-03-07T11:40:09.922Z,5728.00
2023-03-07T11:41:10.718Z,5656.00
2023-03-07T11:42:09.857Z,5720.00
2023-03-07T11:43:09.873Z,5464.00
2023-03-07T11:44:09.802Z,4844.00
2023-03-07T11:45:09.818Z,4800.00
2023-03-07T11:46:09.737Z,4828.00
2023-03-07T11:47:09.688Z,4392.00
2023-03-07T11:48:09.646Z,4040.00
2023-03-07T11:49:09.668Z,3808.00
2023-03-07T11:50:09.598Z,3856.00
2023-03-07T11:51:09.538Z,4080.00
2023-03-07T11:52:09.498Z,4464.00
2023-03-07T11:53:09.469Z,4980.00
2023-03-07T11:54:09.429Z,5292.00
2023-03-07T11:55:09.493Z,4604.00
2023-03-07T11:56:09.386Z,4292.00
2023-03-07T11:57:09.337Z,4264.00
2023-03-07T11:58:09.289Z,3928.00
2023-03-07T11:59:09.251Z,3636.00
2023-03-07T12:00:09.222Z,3428.00
2023-03-07T12:01:11.588Z,3348.00
2023-03-07T12:02:09.160Z,3152.00
2023-03-07T12:03:09.154Z,3128.00
2023-03-07T12:04:09.087Z,3188.00
2023-03-07T12:05:09.040Z,3000.00
2023-03-07T12:06:09.058Z,3168.00
2023-03-07T12:07:09.021Z,3588.00
2023-03-07T12:08:08.953Z,3732.00
2023-03-07T12:09:08.913Z,3472.00
2023-03-07T12:10:08.869Z,3544.00
2023-03-07T12:11:08.825Z,3856.00
2023-03-07T12:12:08.808Z,3772.00
2023-03-07T12:13:08.826Z,3708.00
2023-03-07T12:14:08.736Z,3836.00
2023-03-07T12:15:08.679Z,3828.00
2023-03-07T12:16:08.701Z,3744.00
2023-03-07T12:17:08.615Z,3780.00
2023-03-07T12:18:08.577Z,3864.00
2023-03-07T12:19:08.598Z,4024.00
2023-03-07T12:20:08.678Z,4240.00
2023-03-07T12:21:08.469Z,4724.00
2023-03-07T12:22:08.436Z,4912.00
2023-03-07T12:23:08.415Z,4908.00
2023-03-07T12:24:08.453Z,4928.00
2023-03-07T12:25:08.374Z,4856.00
2023-03-07T12:26:08.301Z,4804.00
2023-03-07T12:27:08.253Z,4788.00
2023-03-07T12:28:08.208Z,4496.00
2023-03-07T12:29:08.182Z,4288.00
2023-03-07T12:30:08.897Z,4356.00
2023-03-07T12:31:08.316Z,4408.00
2023-03-07T12:32:08.179Z,4316.00
2023-03-07T12:33:08.176Z,4292.00
2023-03-07T12:34:07.999Z,4340.00
2023-03-07T12:35:07.971Z,4288.00
2023-03-07T12:36:08.013Z,4260.00
2023-03-07T12:37:07.940Z,4244.00
2023-03-07T12:38:07.854Z,4316.00